sensor_id;sensor_type;location;lat;lon;timestamp;P1;durP1;ratioP1;P2;durP2;ratioP2
6251;SDS011;3159;52.414;9.784;2022-09-01T00:01:36;0.50;;;0.40;;
6251;SDS011;3159;52.414;9.784;2022-09-01T00:04:05;1.20;;;0.60;;
6251;SDS011;3159;52.414;9.784;2022-09-01T00:06:34;0.50;;;0.50;;
6251;SDS011;3159;52.414;9.784;2022-09-01T00:09:05;0.80;;;0.80;;
6251;SDS011;3159;52.414;9.784;2022-09-01T00:11:33;1.07;;;0.40;;
6251;SDS011;3159;52.414;9.784;2022-09-01T00:14:00;0.50;;;0.43;;
6251;SDS011;3159;52.414;9.784;2022-09-01T00:16:28;0.60;;;0.40;;
6251;SDS011;3159;52.414;9.784;2022-09-01T00:18:57;1.47;;;0.50;;
6251;SDS011;3159;52.414;9.784;2022-09-01T00:21:25;1.20;;;0.60;;
6251;SDS011;3159;52.414;9.784;2022-09-01T00:23:53;0.67;;;0.50;;
6251;SDS011;3159;52.414;9.784;2022-09-01T00:26:20;0.60;;;0.57;;
6251;SDS011;3159;52.414;9.784;2022-09-01T00:28:48;0.30;;;0.30;;
6251;SDS011;3159;52.414;9.784;2022-09-01T00:31:15;3.07;;;0.60;;
6251;SDS011;3159;52.414;9.784;2022-09-01T00:33:43;1.07;;;0.67;;
6251;SDS011;3159;52.414;9.784;2022-09-01T00:36:12;0.80;;;0.50;;
6251;SDS011;3159;52.414;9.784;2022-09-01T00:38:39;0.50;;;0.50;;
6251;SDS011;3159;52.414;9.784;2022-09-01T00:41:06;1.70;;;0.50;;
6251;SDS011;3159;52.414;9.784;2022-09-01T00:43:38;0.80;;;0.50;;
6251;SDS011;3159;52.414;9.784;2022-09-01T00:46:09;1.03;;;0.47;;
6251;SDS011;3159;52.414;9.784;2022-09-01T00:48:38;2.80;;;0.40;;
6251;SDS011;3159;52.414;9.784;2022-09-01T00:51:05;1.00;;;0.50;;
6251;SDS011;3159;52.414;9.784;2022-09-01T00:53:35;0.50;;;0.40;;
6251;SDS011;3159;52.414;9.784;2022-09-01T00:56:05;0.63;;;0.43;;
6251;SDS011;3159;52.414;9.784;2022-09-01T00:58:33;1.83;;;0.70;;
6251;SDS011;3159;52.414;9.784;2022-09-01T01:01:02;0.70;;;0.40;;
6251;SDS011;3159;52.414;9.784;2022-09-01T01:03:29;1.17;;;0.70;;
6251;SDS011;3159;52.414;9.784;2022-09-01T01:05:57;0.40;;;0.40;;
6251;SDS011;3159;52.414;9.784;2022-09-01T01:08:30;1.73;;;0.53;;
6251;SDS011;3159;52.414;9.784;2022-09-01T01:11:00;1.83;;;0.57;;
6251;SDS011;3159;52.414;9.784;2022-09-01T01:13:28;0.73;;;0.63;;
6251;SDS011;3159;52.414;9.784;2022-09-01T01:15:56;1.80;;;0.60;;
6251;SDS011;3159;52.414;9.784;2022-09-01T01:18:24;2.07;;;0.60;;
6251;SDS011;3159;52.414;9.784;2022-09-01T01:20:56;0.47;;;0.47;;
6251;SDS011;3159;52.414;9.784;2022-09-01T01:23:46;1.57;;;0.60;;
6251;SDS011;3159;52.414;9.784;2022-09-01T01:26:23;0.60;;;0.60;;
6251;SDS011;3159;52.414;9.784;2022-09-01T01:28:50;0.40;;;0.40;;
6251;SDS011;3159;52.414;9.784;2022-09-01T01:31:18;1.33;;;0.63;;
6251;SDS011;3159;52.414;9.784;2022-09-01T01:33:47;0.47;;;0.33;;
6251;SDS011;3159;52.414;9.784;2022-09-01T01:36:17;2.93;;;1.17;;
6251;SDS011;3159;52.414;9.784;2022-09-01T01:38:55;0.70;;;0.60;;
6251;SDS011;3159;52.414;9.784;2022-09-01T01:41:27;0.80;;;0.70;;
6251;SDS011;3159;52.414;9.784;2022-09-01T01:43:56;1.33;;;0.77;;
6251;SDS011;3159;52.414;9.784;2022-09-01T01:46:24;0.70;;;0.70;;
6251;SDS011;3159;52.414;9.784;2022-09-01T01:48:51;0.87;;;0.50;;
6251;SDS011;3159;52.414;9.784;2022-09-01T01:51:20;1.23;;;0.70;;
6251;SDS011;3159;52.414;9.784;2022-09-01T01:53:49;2.07;;;0.60;;
6251;SDS011;3159;52.414;9.784;2022-09-01T01:56:16;1.13;;;0.60;;
6251;SDS011;3159;52.414;9.784;2022-09-01T01:58:45;2.50;;;0.77;;
6251;SDS011;3159;52.414;9.784;2022-09-01T02:01:13;1.67;;;0.60;;
6251;SDS011;3159;52.414;9.784;2022-09-01T02:03:41;2.00;;;0.60;;
6251;SDS011;3159;52.414;9.784;2022-09-01T02:06:09;0.40;;;0.40;;
6251;SDS011;3159;52.414;9.784;2022-09-01T02:08:37;0.80;;;0.60;;
6251;SDS011;3159;52.414;9.784;2022-09-01T02:11:05;1.03;;;0.60;;
6251;SDS011;3159;52.414;9.784;2022-09-01T02:13:33;0.70;;;0.60;;
6251;SDS011;3159;52.414;9.784;2022-09-01T02:16:03;0.63;;;0.57;;
6251;SDS011;3159;52.414;9.784;2022-09-01T02:18:37;1.50;;;0.50;;
6251;SDS011;3159;52.414;9.784;2022-09-01T02:21:08;0.60;;;0.60;;
6251;SDS011;3159;52.414;9.784;2022-09-01T02:23:38;0.80;;;0.50;;
6251;SDS011;3159;52.414;9.784;2022-09-01T02:26:07;1.73;;;0.73;;
6251;SDS011;3159;52.414;9.784;2022-09-01T02:28:35;1.07;;;0.93;;
6251;SDS011;3159;52.414;9.784;2022-09-01T02:31:08;1.37;;;0.80;;
6251;SDS011;3159;52.414;9.784;2022-09-01T02:33:36;1.43;;;0.60;;
6251;SDS011;3159;52.414;9.784;2022-09-01T02:36:04;0.97;;;0.67;;
6251;SDS011;3159;52.414;9.784;2022-09-01T02:38:33;0.40;;;0.40;;
6251;SDS011;3159;52.414;9.784;2022-09-01T02:41:01;0.80;;;0.53;;
6251;SDS011;3159;52.414;9.784;2022-09-01T02:43:28;0.50;;;0.50;;
6251;SDS011;3159;52.414;9.784;2022-09-01T02:45:56;0.57;;;0.57;;
6251;SDS011;3159;52.414;9.784;2022-09-01T02:48:28;0.80;;;0.50;;
6251;SDS011;3159;52.414;9.784;2022-09-01T02:50:58;1.90;;;0.73;;
6251;SDS011;3159;52.414;9.784;2022-09-01T02:53:27;1.60;;;0.60;;
6251;SDS011;3159;52.414;9.784;2022-09-01T02:55:55;0.87;;;0.70;;
6251;SDS011;3159;52.414;9.784;2022-09-01T02:58:23;0.70;;;0.70;;
6251;SDS011;3159;52.414;9.784;2022-09-01T03:00:51;0.70;;;0.60;;
6251;SDS011;3159;52.414;9.784;2022-09-01T03:03:19;1.80;;;0.77;;
6251;SDS011;3159;52.414;9.784;2022-09-01T03:05:50;0.97;;;0.60;;
6251;SDS011;3159;52.414;9.784;2022-09-01T03:08:19;2.27;;;0.87;;
6251;SDS011;3159;52.414;9.784;2022-09-01T03:10:47;0.80;;;0.60;;
6251;SDS011;3159;52.414;9.784;2022-09-01T03:13:15;1.00;;;0.90;;
6251;SDS011;3159;52.414;9.784;2022-09-01T03:15:43;0.53;;;0.53;;
6251;SDS011;3159;52.414;9.784;2022-09-01T03:18:11;1.27;;;0.50;;
6251;SDS011;3159;52.414;9.784;2022-09-01T03:20:40;0.83;;;0.50;;
6251;SDS011;3159;52.414;9.784;2022-09-01T03:23:12;1.73;;;0.77;;
6251;SDS011;3159;52.414;9.784;2022-09-01T03:25:41;0.53;;;0.50;;
6251;SDS011;3159;52.414;9.784;2022-09-01T03:28:09;1.20;;;0.73;;
6251;SDS011;3159;52.414;9.784;2022-09-01T03:30:37;1.03;;;0.60;;
6251;SDS011;3159;52.414;9.784;2022-09-01T03:33:09;1.63;;;0.80;;
6251;SDS011;3159;52.414;9.784;2022-09-01T03:35:36;1.33;;;0.60;;
6251;SDS011;3159;52.414;9.784;2022-09-01T03:38:03;1.77;;;0.83;;
6251;SDS011;3159;52.414;9.784;2022-09-01T03:40:33;0.60;;;0.60;;
6251;SDS011;3159;52.414;9.784;2022-09-01T03:43:02;2.00;;;0.80;;
6251;SDS011;3159;52.414;9.784;2022-09-01T03:45:30;1.13;;;0.80;;
6251;SDS011;3159;52.414;9.784;2022-09-01T03:47:59;1.10;;;0.80;;
6251;SDS011;3159;52.414;9.784;2022-09-01T03:50:33;3.03;;;0.73;;
6251;SDS011;3159;52.414;9.784;2022-09-01T03:53:05;1.13;;;0.77;;
6251;SDS011;3159;52.414;9.784;2022-09-01T03:55:34;1.10;;;0.83;;
6251;SDS011;3159;52.414;9.784;2022-09-01T03:58:04;0.73;;;0.70;;
6251;SDS011;3159;52.414;9.784;2022-09-01T04:00:34;0.70;;;0.70;;
6251;SDS011;3159;52.414;9.784;2022-09-01T04:03:06;0.80;;;0.53;;
6251;SDS011;3159;52.414;9.784;2022-09-01T04:05:36;0.70;;;0.70;;
6251;SDS011;3159;52.414;9.784;2022-09-01T04:08:06;1.67;;;0.73;;
6251;SDS011;3159;52.414;9.784;2022-09-01T04:10:37;1.80;;;0.87;;
6251;SDS011;3159;52.414;9.784;2022-09-01T04:13:14;1.13;;;0.77;;
6251;SDS011;3159;52.414;9.784;2022-09-01T04:15:41;1.07;;;0.80;;
6251;SDS011;3159;52.414;9.784;2022-09-01T04:18:08;1.13;;;0.73;;
6251;SDS011;3159;52.414;9.784;2022-09-01T04:20:36;1.07;;;0.70;;
6251;SDS011;3159;52.414;9.784;2022-09-01T04:23:14;1.07;;;0.90;;
6251;SDS011;3159;52.414;9.784;2022-09-01T04:25:47;2.50;;;1.07;;
6251;SDS011;3159;52.414;9.784;2022-09-01T04:28:14;1.83;;;0.90;;
6251;SDS011;3159;52.414;9.784;2022-09-01T04:30:48;1.90;;;0.60;;
6251;SDS011;3159;52.414;9.784;2022-09-01T04:33:15;3.33;;;0.77;;
6251;SDS011;3159;52.414;9.784;2022-09-01T04:35:42;1.47;;;0.87;;
6251;SDS011;3159;52.414;9.784;2022-09-01T04:38:09;1.40;;;0.80;;
6251;SDS011;3159;52.414;9.784;2022-09-01T04:40:40;0.80;;;0.80;;
6251;SDS011;3159;52.414;9.784;2022-09-01T04:43:08;3.13;;;1.00;;
6251;SDS011;3159;52.414;9.784;2022-09-01T04:45:36;1.17;;;0.73;;
6251;SDS011;3159;52.414;9.784;2022-09-01T04:48:03;1.60;;;0.70;;
6251;SDS011;3159;52.414;9.784;2022-09-01T04:50:31;0.90;;;0.80;;
6251;SDS011;3159;52.414;9.784;2022-09-01T04:52:59;1.37;;;0.80;;
6251;SDS011;3159;52.414;9.784;2022-09-01T04:55:26;1.67;;;0.80;;
6251;SDS011;3159;52.414;9.784;2022-09-01T04:57:55;4.10;;;1.40;;
6251;SDS011;3159;52.414;9.784;2022-09-01T05:00:25;2.50;;;1.00;;
6251;SDS011;3159;52.414;9.784;2022-09-01T05:02:57;1.83;;;1.07;;
6251;SDS011;3159;52.414;9.784;2022-09-01T05:05:27;1.83;;;0.82;;
6251;SDS011;3159;52.414;9.784;2022-09-01T05:08:03;3.10;;;1.10;;
6251;SDS011;3159;52.414;9.784;2022-09-01T05:10:31;1.63;;;0.97;;
6251;SDS011;3159;52.414;9.784;2022-09-01T05:13:00;3.13;;;1.13;;
6251;SDS011;3159;52.414;9.784;2022-09-01T05:15:35;2.70;;;1.00;;
6251;SDS011;3159;52.414;9.784;2022-09-01T05:18:03;1.77;;;1.00;;
6251;SDS011;3159;52.414;9.784;2022-09-01T05:20:35;1.23;;;0.90;;
6251;SDS011;3159;52.414;9.784;2022-09-01T05:23:05;1.10;;;0.97;;
6251;SDS011;3159;52.414;9.784;2022-09-01T05:25:36;1.80;;;1.20;;
6251;SDS011;3159;52.414;9.784;2022-09-01T05:28:07;3.13;;;1.17;;
6251;SDS011;3159;52.414;9.784;2022-09-01T05:30:38;1.43;;;1.10;;
6251;SDS011;3159;52.414;9.784;2022-09-01T05:33:07;1.77;;;1.00;;
6251;SDS011;3159;52.414;9.784;2022-09-01T05:35:40;1.03;;;0.93;;
6251;SDS011;3159;52.414;9.784;2022-09-01T05:38:09;1.33;;;1.00;;
6251;SDS011;3159;52.414;9.784;2022-09-01T05:40:39;3.60;;;1.30;;
6251;SDS011;3159;52.414;9.784;2022-09-01T05:43:08;1.90;;;1.10;;
6251;SDS011;3159;52.414;9.784;2022-09-01T05:45:38;3.20;;;1.00;;
6251;SDS011;3159;52.414;9.784;2022-09-01T05:48:08;3.53;;;1.10;;
6251;SDS011;3159;52.414;9.784;2022-09-01T05:50:38;3.20;;;1.40;;
6251;SDS011;3159;52.414;9.784;2022-09-01T05:53:07;1.90;;;1.20;;
6251;SDS011;3159;52.414;9.784;2022-09-01T05:55:40;1.33;;;1.00;;
6251;SDS011;3159;52.414;9.784;2022-09-01T05:58:09;1.87;;;1.00;;
6251;SDS011;3159;52.414;9.784;2022-09-01T06:00:39;1.83;;;0.80;;
6251;SDS011;3159;52.414;9.784;2022-09-01T06:03:07;1.80;;;1.30;;
6251;SDS011;3159;52.414;9.784;2022-09-01T06:05:35;1.27;;;1.00;;
6251;SDS011;3159;52.414;9.784;2022-09-01T06:08:04;2.10;;;1.23;;
6251;SDS011;3159;52.414;9.784;2022-09-01T06:10:34;2.03;;;1.30;;
6251;SDS011;3159;52.414;9.784;2022-09-01T06:13:04;2.00;;;1.20;;
6251;SDS011;3159;52.414;9.784;2022-09-01T06:15:31;1.20;;;1.10;;
6251;SDS011;3159;52.414;9.784;2022-09-01T06:18:02;2.70;;;1.33;;
6251;SDS011;3159;52.414;9.784;2022-09-01T06:20:30;2.23;;;1.03;;
6251;SDS011;3159;52.414;9.784;2022-09-01T06:22:56;2.77;;;1.20;;
6251;SDS011;3159;52.414;9.784;2022-09-01T06:25:23;2.33;;;0.90;;
6251;SDS011;3159;52.414;9.784;2022-09-01T06:27:55;2.20;;;1.03;;
6251;SDS011;3159;52.414;9.784;2022-09-01T06:30:22;2.90;;;1.53;;
6251;SDS011;3159;52.414;9.784;2022-09-01T06:32:50;4.20;;;1.53;;
6251;SDS011;3159;52.414;9.784;2022-09-01T06:35:19;1.63;;;0.87;;
6251;SDS011;3159;52.414;9.784;2022-09-01T06:37:49;1.90;;;1.00;;
6251;SDS011;3159;52.414;9.784;2022-09-01T06:40:16;0.80;;;0.80;;
6251;SDS011;3159;52.414;9.784;2022-09-01T06:42:44;1.70;;;0.97;;
6251;SDS011;3159;52.414;9.784;2022-09-01T06:45:12;2.23;;;0.90;;
6251;SDS011;3159;52.414;9.784;2022-09-01T06:47:41;1.57;;;0.70;;
6251;SDS011;3159;52.414;9.784;2022-09-01T06:50:09;3.00;;;1.13;;
6251;SDS011;3159;52.414;9.784;2022-09-01T06:52:40;1.40;;;1.00;;
6251;SDS011;3159;52.414;9.784;2022-09-01T06:55:08;0.70;;;0.60;;
6251;SDS011;3159;52.414;9.784;2022-09-01T06:57:36;1.70;;;0.83;;
6251;SDS011;3159;52.414;9.784;2022-09-01T07:00:03;2.53;;;1.10;;
6251;SDS011;3159;52.414;9.784;2022-09-01T07:02:41;1.10;;;0.80;;
6251;SDS011;3159;52.414;9.784;2022-09-01T07:05:09;2.93;;;0.87;;
6251;SDS011;3159;52.414;9.784;2022-09-01T07:07:42;0.80;;;0.67;;
6251;SDS011;3159;52.414;9.784;2022-09-01T07:10:13;0.70;;;0.70;;
6251;SDS011;3159;52.414;9.784;2022-09-01T07:12:40;1.97;;;0.80;;
6251;SDS011;3159;52.414;9.784;2022-09-01T07:15:10;1.00;;;0.63;;
6251;SDS011;3159;52.414;9.784;2022-09-01T07:17:41;1.27;;;0.60;;
6251;SDS011;3159;52.414;9.784;2022-09-01T07:20:13;1.43;;;0.67;;
6251;SDS011;3159;52.414;9.784;2022-09-01T07:22:40;2.47;;;0.70;;
6251;SDS011;3159;52.414;9.784;2022-09-01T07:25:09;1.40;;;0.70;;
6251;SDS011;3159;52.414;9.784;2022-09-01T07:27:36;1.63;;;0.70;;
6251;SDS011;3159;52.414;9.784;2022-09-01T07:30:05;1.97;;;0.70;;
6251;SDS011;3159;52.414;9.784;2022-09-01T07:32:34;1.73;;;0.60;;
6251;SDS011;3159;52.414;9.784;2022-09-01T07:35:04;1.13;;;0.60;;
6251;SDS011;3159;52.414;9.784;2022-09-01T07:37:33;1.67;;;0.60;;
6251;SDS011;3159;52.414;9.784;2022-09-01T07:40:04;0.87;;;0.60;;
6251;SDS011;3159;52.414;9.784;2022-09-01T07:42:33;1.67;;;0.60;;
6251;SDS011;3159;52.414;9.784;2022-09-01T07:45:00;2.17;;;0.70;;
6251;SDS011;3159;52.414;9.784;2022-09-01T07:47:34;1.57;;;0.43;;
6251;SDS011;3159;52.414;9.784;2022-09-01T07:50:02;2.27;;;0.40;;
6251;SDS011;3159;52.414;9.784;2022-09-01T07:52:32;0.60;;;0.50;;
6251;SDS011;3159;52.414;9.784;2022-09-01T07:54:59;0.30;;;0.30;;
6251;SDS011;3159;52.414;9.784;2022-09-01T07:57:28;1.43;;;0.30;;
6251;SDS011;3159;52.414;9.784;2022-09-01T07:59:56;1.90;;;0.70;;
6251;SDS011;3159;52.414;9.784;2022-09-01T08:02:22;1.70;;;0.50;;
6251;SDS011;3159;52.414;9.784;2022-09-01T08:04:52;1.50;;;0.50;;
6251;SDS011;3159;52.414;9.784;2022-09-01T08:07:19;0.50;;;0.30;;
6251;SDS011;3159;52.414;9.784;2022-09-01T08:09:46;1.17;;;0.40;;
6251;SDS011;3159;52.414;9.784;2022-09-01T08:12:13;0.80;;;0.40;;
6251;SDS011;3159;52.414;9.784;2022-09-01T08:14:41;2.13;;;0.60;;
6251;SDS011;3159;52.414;9.784;2022-09-01T08:17:08;2.20;;;0.47;;
6251;SDS011;3159;52.414;9.784;2022-09-01T08:19:35;2.23;;;0.60;;
6251;SDS011;3159;52.414;9.784;2022-09-01T08:22:02;7.50;;;0.90;;
6251;SDS011;3159;52.414;9.784;2022-09-01T08:24:29;1.07;;;0.43;;
6251;SDS011;3159;52.414;9.784;2022-09-01T08:26:56;1.50;;;0.40;;
6251;SDS011;3159;52.414;9.784;2022-09-01T08:29:23;0.30;;;0.30;;
6251;SDS011;3159;52.414;9.784;2022-09-01T08:31:51;0.63;;;0.30;;
6251;SDS011;3159;52.414;9.784;2022-09-01T08:34:18;1.03;;;0.50;;
6251;SDS011;3159;52.414;9.784;2022-09-01T08:36:45;0.40;;;0.30;;
6251;SDS011;3159;52.414;9.784;2022-09-01T08:39:12;0.80;;;0.20;;
6251;SDS011;3159;52.414;9.784;2022-09-01T08:41:41;2.20;;;0.50;;
6251;SDS011;3159;52.414;9.784;2022-09-01T08:44:12;1.03;;;0.50;;
6251;SDS011;3159;52.414;9.784;2022-09-01T08:46:46;1.53;;;0.30;;
6251;SDS011;3159;52.414;9.784;2022-09-01T08:49:21;0.33;;;0.20;;
6251;SDS011;3159;52.414;9.784;2022-09-01T08:51:51;0.87;;;0.30;;
6251;SDS011;3159;52.414;9.784;2022-09-01T08:54:23;1.27;;;0.60;;
6251;SDS011;3159;52.414;9.784;2022-09-01T08:56:56;0.90;;;0.40;;
6251;SDS011;3159;52.414;9.784;2022-09-01T08:59:25;1.90;;;0.40;;
6251;SDS011;3159;52.414;9.784;2022-09-01T09:01:55;0.90;;;0.40;;
6251;SDS011;3159;52.414;9.784;2022-09-01T09:04:37;1.17;;;0.40;;
6251;SDS011;3159;52.414;9.784;2022-09-01T09:07:19;2.20;;;0.30;;
6251;SDS011;3159;52.414;9.784;2022-09-01T09:09:56;0.50;;;0.40;;
6251;SDS011;3159;52.414;9.784;2022-09-01T09:12:32;1.43;;;0.63;;
6251;SDS011;3159;52.414;9.784;2022-09-01T09:15:13;1.53;;;0.30;;
6251;SDS011;3159;52.414;9.784;2022-09-01T09:17:48;0.97;;;0.30;;
6251;SDS011;3159;52.414;9.784;2022-09-01T09:20:24;0.73;;;0.53;;
6251;SDS011;3159;52.414;9.784;2022-09-01T09:22:51;4.63;;;1.07;;
6251;SDS011;3159;52.414;9.784;2022-09-01T09:25:19;3.63;;;0.70;;
6251;SDS011;3159;52.414;9.784;2022-09-01T09:27:48;2.33;;;0.50;;
6251;SDS011;3159;52.414;9.784;2022-09-01T09:30:18;0.90;;;0.50;;
6251;SDS011;3159;52.414;9.784;2022-09-01T09:32:49;1.63;;;0.50;;
6251;SDS011;3159;52.414;9.784;2022-09-01T09:35:22;1.93;;;0.57;;
6251;SDS011;3159;52.414;9.784;2022-09-01T09:37:54;1.07;;;0.60;;
6251;SDS011;3159;52.414;9.784;2022-09-01T09:40:52;1.13;;;0.37;;
6251;SDS011;3159;52.414;9.784;2022-09-01T09:43:24;2.00;;;0.37;;
6251;SDS011;3159;52.414;9.784;2022-09-01T09:46:18;0.67;;;0.30;;
6251;SDS011;3159;52.414;9.784;2022-09-01T09:48:46;0.53;;;0.20;;
6251;SDS011;3159;52.414;9.784;2022-09-01T09:51:16;0.43;;;0.33;;
6251;SDS011;3159;52.414;9.784;2022-09-01T09:53:47;0.97;;;0.43;;
6251;SDS011;3159;52.414;9.784;2022-09-01T09:56:15;1.03;;;0.37;;
6251;SDS011;3159;52.414;9.784;2022-09-01T09:58:45;2.63;;;0.40;;
6251;SDS011;3159;52.414;9.784;2022-09-01T10:01:14;1.03;;;0.30;;
6251;SDS011;3159;52.414;9.784;2022-09-01T10:03:55;1.03;;;0.20;;
6251;SDS011;3159;52.414;9.784;2022-09-01T10:06:32;2.03;;;0.40;;
6251;SDS011;3159;52.414;9.784;2022-09-01T10:09:03;0.20;;;0.20;;
6251;SDS011;3159;52.414;9.784;2022-09-01T10:11:32;0.83;;;0.40;;
6251;SDS011;3159;52.414;9.784;2022-09-01T10:14:05;1.03;;;0.30;;
6251;SDS011;3159;52.414;9.784;2022-09-01T10:16:35;0.57;;;0.43;;
6251;SDS011;3159;52.414;9.784;2022-09-01T10:19:06;0.30;;;0.30;;
6251;SDS011;3159;52.414;9.784;2022-09-01T10:21:39;2.57;;;0.30;;
6251;SDS011;3159;52.414;9.784;2022-09-01T10:24:13;2.10;;;0.50;;
6251;SDS011;3159;52.414;9.784;2022-09-01T10:26:45;1.67;;;0.50;;
6251;SDS011;3159;52.414;9.784;2022-09-01T10:29:17;1.73;;;0.57;;
6251;SDS011;3159;52.414;9.784;2022-09-01T10:31:48;1.40;;;0.40;;
6251;SDS011;3159;52.414;9.784;2022-09-01T10:34:16;0.80;;;0.30;;
6251;SDS011;3159;52.414;9.784;2022-09-01T10:36:45;1.23;;;0.30;;
6251;SDS011;3159;52.414;9.784;2022-09-01T10:39:14;0.17;;;0.13;;
6251;SDS011;3159;52.414;9.784;2022-09-01T10:41:47;0.50;;;0.30;;
6251;SDS011;3159;52.414;9.784;2022-09-01T10:44:18;0.50;;;0.30;;
6251;SDS011;3159;52.414;9.784;2022-09-01T10:46:47;0.50;;;0.30;;
6251;SDS011;3159;52.414;9.784;2022-09-01T10:49:20;0.60;;;0.40;;
6251;SDS011;3159;52.414;9.784;2022-09-01T10:55:16;2.20;;;0.37;;
6251;SDS011;3159;52.414;9.784;2022-09-01T10:57:47;1.17;;;0.50;;
6251;SDS011;3159;52.414;9.784;2022-09-01T11:03:36;0.50;;;0.30;;
6251;SDS011;3159;52.414;9.784;2022-09-01T11:09:28;0.47;;;0.40;;
6251;SDS011;3159;52.414;9.784;2022-09-01T11:12:05;1.57;;;0.50;;
6251;SDS011;3159;52.414;9.784;2022-09-01T11:14:48;0.40;;;0.30;;
6251;SDS011;3159;52.414;9.784;2022-09-01T11:17:17;0.37;;;0.20;;
6251;SDS011;3159;52.414;9.784;2022-09-01T11:19:53;0.43;;;0.40;;
6251;SDS011;3159;52.414;9.784;2022-09-01T11:22:29;1.43;;;0.30;;
6251;SDS011;3159;52.414;9.784;2022-09-01T11:31:10;1.37;;;0.33;;
6251;SDS011;3159;52.414;9.784;2022-09-01T11:36:44;0.63;;;0.30;;
6251;SDS011;3159;52.414;9.784;2022-09-01T11:39:30;0.20;;;0.20;;
6251;SDS011;3159;52.414;9.784;2022-09-01T11:42:00;0.83;;;0.40;;
6251;SDS011;3159;52.414;9.784;2022-09-01T11:44:35;2.47;;;0.37;;
6251;SDS011;3159;52.414;9.784;2022-09-01T11:47:06;0.47;;;0.30;;
6251;SDS011;3159;52.414;9.784;2022-09-01T11:49:46;0.97;;;0.30;;
6251;SDS011;3159;52.414;9.784;2022-09-01T11:52:17;0.37;;;0.37;;
6251;SDS011;3159;52.414;9.784;2022-09-01T11:54:46;2.10;;;0.40;;
6251;SDS011;3159;52.414;9.784;2022-09-01T11:57:19;0.40;;;0.30;;
6251;SDS011;3159;52.414;9.784;2022-09-01T11:59:50;0.20;;;0.20;;
6251;SDS011;3159;52.414;9.784;2022-09-01T12:02:18;0.43;;;0.30;;
6251;SDS011;3159;52.414;9.784;2022-09-01T12:04:47;0.70;;;0.40;;
6251;SDS011;3159;52.414;9.784;2022-09-01T12:07:23;0.60;;;0.30;;
6251;SDS011;3159;52.414;9.784;2022-09-01T12:09:52;0.27;;;0.20;;
6251;SDS011;3159;52.414;9.784;2022-09-01T12:12:32;2.37;;;0.40;;
6251;SDS011;3159;52.414;9.784;2022-09-01T12:15:05;1.80;;;0.40;;
6251;SDS011;3159;52.414;9.784;2022-09-01T12:17:42;3.07;;;0.37;;
6251;SDS011;3159;52.414;9.784;2022-09-01T12:20:19;1.30;;;0.50;;
6251;SDS011;3159;52.414;9.784;2022-09-01T12:22:48;0.80;;;0.30;;
6251;SDS011;3159;52.414;9.784;2022-09-01T12:25:17;1.60;;;0.53;;
6251;SDS011;3159;52.414;9.784;2022-09-01T12:27:46;0.70;;;0.23;;
6251;SDS011;3159;52.414;9.784;2022-09-01T12:30:15;0.60;;;0.30;;
6251;SDS011;3159;52.414;9.784;2022-09-01T12:32:43;0.80;;;0.23;;
6251;SDS011;3159;52.414;9.784;2022-09-01T12:35:13;1.27;;;0.30;;
6251;SDS011;3159;52.414;9.784;2022-09-01T12:37:43;1.63;;;0.30;;
6251;SDS011;3159;52.414;9.784;2022-09-01T12:40:21;0.57;;;0.20;;
6251;SDS011;3159;52.414;9.784;2022-09-01T12:42:50;2.43;;;0.50;;
6251;SDS011;3159;52.414;9.784;2022-09-01T12:48:06;1.80;;;0.40;;
6251;SDS011;3159;52.414;9.784;2022-09-01T12:50:48;0.30;;;0.23;;
6251;SDS011;3159;52.414;9.784;2022-09-01T12:53:19;2.53;;;0.30;;
6251;SDS011;3159;52.414;9.784;2022-09-01T12:58:45;0.30;;;0.27;;
6251;SDS011;3159;52.414;9.784;2022-09-01T13:01:26;0.80;;;0.30;;
6251;SDS011;3159;52.414;9.784;2022-09-01T13:06:49;0.60;;;0.30;;
6251;SDS011;3159;52.414;9.784;2022-09-01T13:09:16;1.67;;;0.40;;
6251;SDS011;3159;52.414;9.784;2022-09-01T13:11:43;1.53;;;0.40;;
6251;SDS011;3159;52.414;9.784;2022-09-01T13:14:12;1.53;;;0.30;;
6251;SDS011;3159;52.414;9.784;2022-09-01T13:16:41;2.00;;;0.50;;
6251;SDS011;3159;52.414;9.784;2022-09-01T13:19:08;0.83;;;0.30;;
6251;SDS011;3159;52.414;9.784;2022-09-01T13:21:35;1.33;;;0.30;;
6251;SDS011;3159;52.414;9.784;2022-09-01T13:24:02;0.37;;;0.20;;
6251;SDS011;3159;52.414;9.784;2022-09-01T13:26:30;0.80;;;0.23;;
6251;SDS011;3159;52.414;9.784;2022-09-01T13:28:57;0.83;;;0.40;;
6251;SDS011;3159;52.414;9.784;2022-09-01T13:31:25;0.30;;;0.30;;
6251;SDS011;3159;52.414;9.784;2022-09-01T13:33:54;0.70;;;0.30;;
6251;SDS011;3159;52.414;9.784;2022-09-01T13:36:22;0.20;;;0.20;;
6251;SDS011;3159;52.414;9.784;2022-09-01T13:38:49;0.77;;;0.60;;
6251;SDS011;3159;52.414;9.784;2022-09-01T13:41:16;3.03;;;0.40;;
6251;SDS011;3159;52.414;9.784;2022-09-01T13:43:43;0.97;;;0.30;;
6251;SDS011;3159;52.414;9.784;2022-09-01T13:46:11;1.33;;;0.30;;
6251;SDS011;3159;52.414;9.784;2022-09-01T13:48:38;1.77;;;0.40;;
6251;SDS011;3159;52.414;9.784;2022-09-01T13:51:06;0.50;;;0.30;;
6251;SDS011;3159;52.414;9.784;2022-09-01T13:53:33;0.47;;;0.30;;
6251;SDS011;3159;52.414;9.784;2022-09-01T13:56:00;1.43;;;0.27;;
6251;SDS011;3159;52.414;9.784;2022-09-01T13:58:28;1.57;;;0.40;;
6251;SDS011;3159;52.414;9.784;2022-09-01T14:00:54;3.13;;;0.40;;
6251;SDS011;3159;52.414;9.784;2022-09-01T14:03:23;1.17;;;0.30;;
6251;SDS011;3159;52.414;9.784;2022-09-01T14:05:50;1.17;;;0.40;;
6251;SDS011;3159;52.414;9.784;2022-09-01T14:08:20;1.17;;;0.30;;
6251;SDS011;3159;52.414;9.784;2022-09-01T14:10:49;1.73;;;0.40;;
6251;SDS011;3159;52.414;9.784;2022-09-01T14:13:17;1.20;;;0.40;;
6251;SDS011;3159;52.414;9.784;2022-09-01T14:15:45;1.90;;;0.30;;
6251;SDS011;3159;52.414;9.784;2022-09-01T14:18:13;0.30;;;0.20;;
6251;SDS011;3159;52.414;9.784;2022-09-01T14:20:41;2.00;;;0.40;;
6251;SDS011;3159;52.414;9.784;2022-09-01T14:23:09;0.30;;;0.30;;
6251;SDS011;3159;52.414;9.784;2022-09-01T14:25:40;0.43;;;0.20;;
6251;SDS011;3159;52.414;9.784;2022-09-01T14:28:08;0.73;;;0.30;;
6251;SDS011;3159;52.414;9.784;2022-09-01T14:30:35;0.20;;;0.20;;
6251;SDS011;3159;52.414;9.784;2022-09-01T14:33:02;0.30;;;0.30;;
6251;SDS011;3159;52.414;9.784;2022-09-01T14:35:29;0.43;;;0.30;;
6251;SDS011;3159;52.414;9.784;2022-09-01T14:37:58;0.77;;;0.30;;
6251;SDS011;3159;52.414;9.784;2022-09-01T14:40:26;0.93;;;0.40;;
6251;SDS011;3159;52.414;9.784;2022-09-01T14:42:55;0.83;;;0.30;;
6251;SDS011;3159;52.414;9.784;2022-09-01T14:45:23;0.73;;;0.60;;
6251;SDS011;3159;52.414;9.784;2022-09-01T14:47:53;1.03;;;0.37;;
6251;SDS011;3159;52.414;9.784;2022-09-01T14:50:21;1.73;;;0.40;;
6251;SDS011;3159;52.414;9.784;2022-09-01T14:52:49;2.13;;;0.50;;
6251;SDS011;3159;52.414;9.784;2022-09-01T14:55:18;1.37;;;0.30;;
6251;SDS011;3159;52.414;9.784;2022-09-01T14:57:46;1.47;;;0.20;;
6251;SDS011;3159;52.414;9.784;2022-09-01T15:00:14;0.30;;;0.30;;
6251;SDS011;3159;52.414;9.784;2022-09-01T15:02:42;0.97;;;0.30;;
6251;SDS011;3159;52.414;9.784;2022-09-01T15:05:10;0.70;;;0.40;;
6251;SDS011;3159;52.414;9.784;2022-09-01T15:07:37;1.13;;;0.30;;
6251;SDS011;3159;52.414;9.784;2022-09-01T15:10:06;1.60;;;0.20;;
6251;SDS011;3159;52.414;9.784;2022-09-01T15:12:34;1.50;;;0.40;;
6251;SDS011;3159;52.414;9.784;2022-09-01T15:15:04;1.13;;;0.47;;
6251;SDS011;3159;52.414;9.784;2022-09-01T15:17:33;0.77;;;0.17;;
6251;SDS011;3159;52.414;9.784;2022-09-01T15:20:01;1.70;;;0.40;;
6251;SDS011;3159;52.414;9.784;2022-09-01T15:22:43;0.60;;;0.30;;
6251;SDS011;3159;52.414;9.784;2022-09-01T15:25:11;0.40;;;0.40;;
6251;SDS011;3159;52.414;9.784;2022-09-01T15:27:38;1.37;;;0.37;;
6251;SDS011;3159;52.414;9.784;2022-09-01T15:30:05;0.30;;;0.20;;
6251;SDS011;3159;52.414;9.784;2022-09-01T15:32:41;0.77;;;0.20;;
6251;SDS011;3159;52.414;9.784;2022-09-01T15:35:08;1.43;;;0.20;;
6251;SDS011;3159;52.414;9.784;2022-09-01T15:37:35;0.77;;;0.40;;
6251;SDS011;3159;52.414;9.784;2022-09-01T15:40:03;0.50;;;0.27;;
6251;SDS011;3159;52.414;9.784;2022-09-01T15:42:33;0.57;;;0.40;;
6251;SDS011;3159;52.414;9.784;2022-09-01T15:45:00;2.87;;;0.30;;
6251;SDS011;3159;52.414;9.784;2022-09-01T15:47:28;1.60;;;0.47;;
6251;SDS011;3159;52.414;9.784;2022-09-01T15:49:57;1.23;;;0.60;;
6251;SDS011;3159;52.414;9.784;2022-09-01T15:52:24;0.90;;;0.37;;
6251;SDS011;3159;52.414;9.784;2022-09-01T15:54:51;0.63;;;0.33;;
6251;SDS011;3159;52.414;9.784;2022-09-01T15:57:18;0.60;;;0.30;;
6251;SDS011;3159;52.414;9.784;2022-09-01T15:59:45;1.53;;;0.20;;